Time;durP1;ratioP1;P1;durP2;ratioP2;P2;SDS_P1;SDS_P2;PMS_P1;PMS_P2;Temp;Humidity;BMP_temperature;BMP_pressure;BME280_temperature;BME280_humidity;BME280_pressure;Samples;Min_cycle;Max_cycle;Signal;HPM_P1;HPM_P2
2022/11/04 00:00:04;;;;;;;;;;;;;;;20.19;45.03;95290.00;6123014;19;2539;-62
2022/11/04 00:02:07;;;;;;;;;;;;;;;20.19;44.73;95290.00;6110134;19;1907;-62
2022/11/04 00:04:11;;;;;;;;;;;;;;;20.19;44.94;95287.34;6107027;19;1931;-63
2022/11/04 00:06:14;;;;;;;;;;;;;;;20.19;44.97;95286.53;6121940;19;1964;-62
2022/11/04 00:12:54;;;;;;;;;;;;;;;20.19;44.98;95282.00;6123869;19;1792;-62
2022/11/04 00:17:18;;;;;;;;;;;;;;;20.18;44.93;95272.38;6095129;19;2028;-64
2022/11/04 00:17:18;;;;;;;;;;;;;;;20.18;45.40;95283.03;6122388;19;1915;-63
2022/11/04 00:19:22;;;;;;;;;;;;;;;20.19;45.39;95284.66;6119620;19;1962;-64
2022/11/04 00:30:32;;;;;;;;;;;;;;;20.19;45.83;95279.34;6121362;19;1905;-61
2022/11/04 00:34:51;;;;;;;;;;;;;;;20.21;45.50;95281.81;6123253;19;2170;-64
2022/11/04 00:36:54;;;;;;;;;;;;;;;20.20;45.92;95280.97;6096857;19;2096;-63
2022/11/04 00:38:57;;;;;;;;;;;;;;;20.21;45.90;95281.81;6119936;19;1755;-62
2022/11/04 00:41:24;;;;;;;;;;;;;;;20.20;45.89;95275.63;6122985;19;1792;-63
2022/11/04 00:43:27;;;;;;;;;;;;;;;20.20;46.04;95280.16;6119894;19;1070;-62
2022/11/04 00:45:30;;;;;;;;;;;;;;;20.21;45.77;95271.94;6122075;19;1897;-63
2022/11/04 00:47:33;;;;;;;;;;;;;;;20.21;46.12;95271.13;6113641;19;1945;-65
2022/11/04 00:49:37;;;;;;;;;;;;;;;20.21;46.15;95271.13;6104024;19;2166;-62
2022/11/04 00:51:40;;;;;;;;;;;;;;;20.19;45.95;95273.19;6120786;19;1965;-64
2022/11/04 00:53:43;;;;;;;;;;;;;;;20.21;45.98;95263.13;6121373;19;1926;-62
2022/11/04 00:55:47;;;;;;;;;;;;;;;20.20;46.02;95264.94;6120752;19;1808;-62
2022/11/04 00:57:52;;;;;;;;;;;;;;;20.21;45.63;95261.28;6121780;19;1791;-62
2022/11/04 00:59:56;;;;;;;;;;;;;;;20.22;45.96;95260.25;6093889;19;2011;-62
2022/11/04 01:01:59;;;;;;;;;;;;;;;20.21;45.82;95247.13;6118481;19;1869;-63
2022/11/04 01:04:02;;;;;;;;;;;;;;;20.21;45.62;95255.94;6120597;19;1738;-63
2022/11/04 01:06:06;;;;;;;;;;;;;;;20.20;45.59;95248.94;6122138;19;1859;-62
2022/11/04 01:08:09;;;;;;;;;;;;;;;20.21;45.67;95244.47;6118805;19;1981;-63
2022/11/04 01:10:13;;;;;;;;;;;;;;;20.22;45.81;95256.75;6120870;19;2127;-63
2022/11/04 01:12:16;;;;;;;;;;;;;;;20.20;45.75;95243.59;6091805;19;1749;-62
2022/11/04 01:14:22;;;;;;;;;;;;;;;20.20;45.77;95246.28;6117717;19;2110;-62
2022/11/04 01:16:26;;;;;;;;;;;;;;;20.21;45.63;95253.28;6118998;19;1724;-63
2022/11/04 01:18:29;;;;;;;;;;;;;;;20.20;45.89;95240.94;6120888;19;1950;-62
2022/11/04 01:20:33;;;;;;;;;;;;;;;20.20;45.83;95238.28;6120557;19;2114;-63
2022/11/04 01:22:36;;;;;;;;;;;;;;;20.20;45.37;95232.94;6094517;19;1863;-63
2022/11/04 01:24:40;;;;;;;;;;;;;;;20.20;45.85;95227.59;6117765;19;2041;-61
2022/11/04 01:26:43;;;;;;;;;;;;;;;20.21;45.51;95228.44;6120207;19;1930;-64
2022/11/04 01:28:47;;;;;;;;;;;;;;;20.21;45.83;95231.13;6119773;19;2179;-63
2022/11/04 01:30:52;;;;;;;;;;;;;;;20.20;45.58;95227.59;6119609;19;1959;-63
2022/11/04 01:32:56;;;;;;;;;;;;;;;20.20;45.38;95222.25;6117147;19;1728;-61
2022/11/04 01:34:59;;;;;;;;;;;;;;;20.19;45.61;95223.31;6093595;19;1829;-63
2022/11/04 01:37:02;;;;;;;;;;;;;;;20.20;45.46;95221.44;6121332;19;2228;-62
2022/11/04 01:39:06;;;;;;;;;;;;;;;20.19;45.71;95215.31;6119596;19;2161;-63
2022/11/04 01:41:10;;;;;;;;;;;;;;;20.20;45.30;95227.59;6121499;19;2188;-62
2022/11/04 01:43:16;;;;;;;;;;;;;;;20.20;45.20;95222.25;6118686;19;1715;-66
2022/11/04 01:45:21;;;;;;;;;;;;;;;20.20;45.59;95221.44;6093954;19;2057;-62
2022/11/04 01:47:29;;;;;;;;;;;;;;;20.21;45.35;95225.78;6117749;19;2133;-63
2022/11/04 01:49:34;;;;;;;;;;;;;;;20.20;45.60;95229.44;6121183;19;1721;-62
2022/11/04 01:51:39;;;;;;;;;;;;;;;20.20;45.74;95219.59;6120364;19;1713;-63
2022/11/04 01:53:45;;;;;;;;;;;;;;;20.20;45.25;95218.78;6117364;19;1922;-62
2022/11/04 01:55:52;;;;;;;;;;;;;;;20.19;45.28;95215.31;6119090;19;1858;-65
2022/11/04 01:57:58;;;;;;;;;;;;;;;20.19;45.76;95215.31;6100821;19;2078;-61
2022/11/04 02:00:03;;;;;;;;;;;;;;;20.19;45.29;95209.97;6117095;19;1946;-62
2022/11/04 02:02:07;;;;;;;;;;;;;;;20.20;45.18;95211.59;6117680;19;2080;-61
2022/11/04 02:04:28;;;;;;;;;;;;;;;20.19;45.20;95209.16;6119256;19;1945;-62
2022/11/04 02:06:32;;;;;;;;;;;;;;;20.19;45.34;95209.97;6119550;19;1987;-62
2022/11/04 02:08:35;;;;;;;;;;;;;;;20.20;45.26;95208.13;6091996;19;1764;-63
2022/11/04 02:10:41;;;;;;;;;;;;;;;20.20;45.46;95210.78;6120753;19;2134;-63
2022/11/04 02:12:50;;;;;;;;;;;;;;;20.19;45.18;95204.63;6120446;19;2135;-64
2022/11/04 02:14:54;;;;;;;;;;;;;;;20.19;45.59;95201.13;6120215;19;1978;-63
2022/11/04 02:17:03;;;;;;;;;;;;;;;20.18;45.60;95200.31;6118649;19;1891;-62
2022/11/04 02:19:19;;;;;;;;;;;;;;;20.18;45.39;95202.19;6105603;19;1979;-63
2022/11/04 02:21:31;;;;;;;;;;;;;;;20.19;45.48;95198.47;6119063;19;1975;-65
2022/11/04 02:23:50;;;;;;;;;;;;;;;20.19;45.51;95199.28;6119686;19;1900;-63
2022/11/04 02:26:21;;;;;;;;;;;;;;;20.21;45.77;95197.25;6126718;19;2131;-64
2022/11/04 02:28:39;;;;;;;;;;;;;;;20.22;45.57;95200.72;6121027;19;1787;-62
2022/11/04 02:30:48;;;;;;;;;;;;;;;20.22;45.37;95204.22;6107705;19;2019;-65
2022/11/04 02:33:02;;;;;;;;;;;;;;;20.21;45.68;95202.59;6120879;19;2102;-61
2022/11/04 02:35:09;;;;;;;;;;;;;;;20.21;45.23;95199.91;6123951;19;1936;-62
2022/11/04 02:37:18;;;;;;;;;;;;;;;20.22;45.50;95196.22;6123862;19;1272;-65
2022/11/04 02:39:29;;;;;;;;;;;;;;;20.21;45.33;95199.91;6126566;19;1815;-65
2022/11/04 02:41:35;;;;;;;;;;;;;;;20.21;45.56;95185.75;6112176;19;1203;-63
2022/11/04 02:43:43;;;;;;;;;;;;;;;20.20;45.27;95184.09;6109925;19;2058;-62
2022/11/04 02:45:50;;;;;;;;;;;;;;;20.20;45.46;95189.44;6121618;19;1836;-61
2022/11/04 02:47:57;;;;;;;;;;;;;;;20.19;45.19;95185.94;6124214;19;1971;-63
2022/11/04 02:50:02;;;;;;;;;;;;;;;20.20;45.51;95187.59;6126102;19;1724;-62
2022/11/04 02:52:08;;;;;;;;;;;;;;;20.20;45.48;95189.44;6125771;19;2082;-68
2022/11/04 02:54:14;;;;;;;;;;;;;;;20.20;45.32;95190.25;6097716;19;1824;-68
2022/11/04 02:56:19;;;;;;;;;;;;;;;20.20;45.33;95186.75;6125592;19;1829;-68
2022/11/04 02:58:25;;;;;;;;;;;;;;;20.20;45.38;95192.09;6122687;19;2208;-69
2022/11/04 03:00:29;;;;;;;;;;;;;;;20.20;45.60;95181.44;6121525;19;2179;-68
2022/11/04 03:02:37;;;;;;;;;;;;;;;20.18;45.79;95181.66;6123684;19;2101;-66
2022/11/04 03:04:43;;;;;;;;;;;;;;;20.20;45.59;95194.78;6111544;19;2089;-68
2022/11/04 03:06:49;;;;;;;;;;;;;;;20.19;45.79;95188.63;6111176;19;2247;-69
2022/11/04 03:08:53;;;;;;;;;;;;;;;20.19;45.61;95179.78;6124534;19;2091;-69
2022/11/04 03:11:00;;;;;;;;;;;;;;;20.19;45.80;95188.63;6123866;19;2106;-67
2022/11/04 03:13:07;;;;;;;;;;;;;;;20.19;45.67;95199.28;6124211;19;1747;-68
2022/11/04 03:15:14;;;;;;;;;;;;;;;20.19;45.49;95190.47;6123562;19;1850;-68
2022/11/04 03:17:22;;;;;;;;;;;;;;;20.19;45.82;95179.78;6095839;19;1993;-69
2022/11/04 03:19:31;;;;;;;;;;;;;;;20.18;45.57;95188.84;6125357;19;2003;-68
2022/11/04 03:21:35;;;;;;;;;;;;;;;20.19;45.79;95183.28;6124543;19;1804;-68
2022/11/04 03:23:39;;;;;;;;;;;;;;;20.18;45.90;95183.50;6122043;19;1728;-68
2022/11/04 03:25:45;;;;;;;;;;;;;;;20.19;45.53;95182.47;6123568;19;2101;-68
2022/11/04 03:27:51;;;;;;;;;;;;;;;20.18;45.91;95196.84;6095871;19;1849;-67
2022/11/04 03:29:58;;;;;;;;;;;;;;;20.17;45.81;95185.31;6121130;19;2068;-69
2022/11/04 03:32:05;;;;;;;;;;;;;;;20.19;45.99;95187.81;6123772;19;1775;-68
2022/11/04 03:34:08;;;;;;;;;;;;;;;20.18;46.15;95186.97;6123765;19;1806;-69
2022/11/04 03:36:14;;;;;;;;;;;;;;;20.18;45.59;95183.50;6122993;19;1729;-68
2022/11/04 03:38:18;;;;;;;;;;;;;;;20.18;45.50;95181.66;6114499;19;2090;-65
2022/11/04 03:40:22;;;;;;;;;;;;;;;20.19;45.65;95188.63;6108713;19;1909;-69
2022/11/04 03:42:26;;;;;;;;;;;;;;;20.18;45.79;95184.31;6121468;19;1089;-68
2022/11/04 03:44:31;;;;;;;;;;;;;;;20.17;46.04;95176.50;6123699;19;1892;-68
2022/11/04 03:46:34;;;;;;;;;;;;;;;20.17;45.59;95190.66;6124700;19;1912;-68
2022/11/04 03:48:38;;;;;;;;;;;;;;;20.19;45.55;95185.13;6121139;19;1947;-68
2022/11/04 03:50:42;;;;;;;;;;;;;;;20.12;45.90;95182.47;6096745;19;1910;-68
2022/11/04 03:52:48;;;;;;;;;;;;;;;20.17;45.71;95182.66;6123177;19;2183;-69
2022/11/04 03:54:52;;;;;;;;;;;;;;;20.19;45.63;95180.63;6120657;19;1740;-69
2022/11/04 03:57:17;;;;;;;;;;;;;;;20.20;45.99;95184.09;6124665;19;2065;-70
2022/11/04 03:59:32;;;;;;;;;;;;;;;20.21;45.68;95180.41;6120163;19;1510;-70
2022/11/04 04:01:41;;;;;;;;;;;;;;;20.21;45.88;95181.25;6102650;19;1928;-69
2022/11/04 04:03:48;;;;;;;;;;;;;;;20.22;45.79;95180.19;6119055;19;2018;-68
2022/11/04 04:05:54;;;;;;;;;;;;;;;20.22;45.67;95180.19;6120690;19;1939;-70
2022/11/04 04:08:03;;;;;;;;;;;;;;;19.75;42.01;95170.50;6119602;19;1862;-68
2022/11/04 04:10:37;;;;;;;;;;;;;;;19.08;40.26;95174.78;6119142;19;1573;-68
2022/11/04 04:12:37;;;;;;;;;;;;;;;18.66;40.21;95174.75;6108344;19;1697;-67
2022/11/04 04:14:43;;;;;;;;;;;;;;;18.51;40.30;95169.53;6106418;19;1349;-67
2022/11/04 04:16:49;;;;;;;;;;;;;;;18.43;40.37;95177.66;6122803;19;1757;-67
2022/11/04 04:18:55;;;;;;;;;;;;;;;18.33;40.35;95170.03;6123469;19;2190;-67
2022/11/04 04:21:00;;;;;;;;;;;;;;;18.28;40.06;95169.78;6118995;19;2117;-67
2022/11/04 04:27:29;;;;;;;;;;;;;;;18.31;39.71;95176.56;6121339;19;1963;-67
2022/11/04 04:27:48;;;;;;;;;;;;;;;18.13;39.89;95176.22;6122146;19;1962;-67
2022/11/04 04:29:52;;;;;;;;;;;;;;;18.17;39.38;95172.16;6120579;19;1918;-67
2022/11/04 04:31:57;;;;;;;;;;;;;;;18.08;39.52;95158.97;6120285;19;1834;-68
2022/11/04 04:34:00;;;;;;;;;;;;;;;18.06;39.83;95157.53;6124582;19;2385;-67
2022/11/04 04:36:04;;;;;;;;;;;;;;;18.06;39.94;95160.19;6095653;19;1787;-67
2022/11/04 04:45:22;;;;;;;;;;;;;;;17.90;39.74;95171.94;6118910;19;1823;-67
2022/11/04 04:47:26;;;;;;;;;;;;;;;17.89;40.09;95170.25;6096557;19;1837;-67
2022/11/04 04:49:33;;;;;;;;;;;;;;;17.86;39.74;95173.31;6121661;19;1926;-66
2022/11/04 04:51:40;;;;;;;;;;;;;;;17.80;40.18;95174.06;6117729;19;1982;-68
2022/11/04 04:53:46;;;;;;;;;;;;;;;17.79;39.94;95169.78;6117737;19;1790;-65
2022/11/04 04:55:49;;;;;;;;;;;;;;;17.74;40.23;95166.88;6121104;19;1859;-66
2022/11/04 04:57:52;;;;;;;;;;;;;;;17.62;40.23;95166.53;6119088;19;1752;-66
2022/11/04 04:59:56;;;;;;;;;;;;;;;17.70;39.67;95165.56;6091963;19;2112;-66
2022/11/04 05:01:59;;;;;;;;;;;;;;;17.66;39.51;95171.25;6116075;19;1887;-67
2022/11/04 05:04:02;;;;;;;;;;;;;;;17.60;40.01;95169.34;6119545;19;2126;-67
2022/11/04 05:06:06;;;;;;;;;;;;;;;17.58;39.92;95170.56;6120037;19;2087;-67
2022/11/04 05:08:10;;;;;;;;;;;;;;;17.53;39.93;95176.44;6121174;19;1926;-67
2022/11/04 05:10:17;;;;;;;;;;;;;;;17.51;40.35;95165.19;6093365;19;1484;-65
2022/11/04 05:12:20;;;;;;;;;;;;;;;17.56;39.96;95169.94;6118981;19;1409;-66
2022/11/04 05:14:24;;;;;;;;;;;;;;;17.58;39.51;95174.03;6120207;19;2074;-68
2022/11/04 05:16:27;;;;;;;;;;;;;;;17.53;39.60;95175.63;6117233;19;1952;-66
2022/11/04 05:18:30;;;;;;;;;;;;;;;17.48;39.97;95186.00;6119981;19;2120;-66
2022/11/04 05:20:34;;;;;;;;;;;;;;;17.47;39.55;95187.81;6117803;19;2114;-66
2022/11/04 05:22:37;;;;;;;;;;;;;;;17.49;39.33;95183.13;6092303;19;1112;-67
2022/11/04 05:24:41;;;;;;;;;;;;;;;17.40;39.60;95184.25;6115438;19;2314;-67
2022/11/04 05:26:47;;;;;;;;;;;;;;;17.38;39.66;95184.44;6117630;19;946;-67
2022/11/04 05:28:50;;;;;;;;;;;;;;;17.35;39.25;95191.97;6113580;19;1829;-67
2022/11/04 05:30:53;;;;;;;;;;;;;;;17.38;39.32;95186.28;6114202;19;1299;-66
2022/11/04 05:32:57;;;;;;;;;;;;;;;17.32;39.55;95187.84;6090320;19;1363;-67
2022/11/04 05:35:00;;;;;;;;;;;;;;;17.33;39.89;95188.69;6116281;19;1077;-67
2022/11/04 05:37:03;;;;;;;;;;;;;;;17.32;39.78;95190.50;6115635;19;1132;-67
2022/11/04 05:39:07;;;;;;;;;;;;;;;17.22;40.34;95195.31;6117858;19;947;-67
2022/11/04 05:41:24;;;;;;;;;;;;;;;17.24;40.14;95197.75;6118970;19;975;-66
2022/11/04 05:43:30;;;;;;;;;;;;;;;17.24;40.03;95192.44;6113965;19;1089;-66
2022/11/04 05:45:33;;;;;;;;;;;;;;;17.18;40.52;95200.13;6101999;19;1325;-65
2022/11/04 05:47:36;;;;;;;;;;;;;;;17.16;40.67;95196.88;6118475;19;1853;-67
2022/11/04 05:49:40;;;;;;;;;;;;;;;17.30;40.71;95202.31;6118807;19;1028;-67
2022/11/04 05:51:43;;;;;;;;;;;;;;;17.23;40.85;95207.56;6118128;19;1041;-67
2022/11/04 05:53:46;;;;;;;;;;;;;;;17.19;40.65;95207.13;6117082;19;1423;-67
2022/11/04 05:55:50;;;;;;;;;;;;;;;17.31;40.58;95209.28;6091710;19;1157;-67
2022/11/04 05:57:53;;;;;;;;;;;;;;;17.22;40.66;95208.56;6118692;19;1093;-65
2022/11/04 05:59:59;;;;;;;;;;;;;;;16.78;41.24;95217.38;6122249;19;1357;-66
2022/11/04 06:02:02;;;;;;;;;;;;;;;15.92;44.14;95221.31;6122726;19;1104;-67
2022/11/04 06:04:06;;;;;;;;;;;;;;;16.43;43.24;95225.00;6124475;19;1057;-66
2022/11/04 06:06:10;;;;;;;;;;;;;;;16.19;43.67;95225.22;6119157;19;1060;-67
2022/11/04 06:08:13;;;;;;;;;;;;;;;16.08;43.98;95223.84;6105732;19;1849;-65
2022/11/04 06:10:16;;;;;;;;;;;;;;;14.74;46.44;95220.41;6124493;19;1025;-66
2022/11/04 06:12:20;;;;;;;;;;;;;;;14.09;49.66;95227.59;6123782;19;1120;-68
2022/11/04 06:14:24;;;;;;;;;;;;;;;16.07;44.79;95222.16;6124440;19;1001;-65
2022/11/04 06:16:30;;;;;;;;;;;;;;;16.86;43.48;95219.94;6123346;19;1434;-65
2022/11/04 06:18:33;;;;;;;;;;;;;;;17.34;42.81;95224.84;6098462;19;1229;-64
2022/11/04 06:20:36;;;;;;;;;;;;;;;17.63;42.19;95224.78;6123247;19;1030;-66
2022/11/04 06:22:40;;;;;;;;;;;;;;;17.84;41.91;95225.81;6124048;19;1049;-66
2022/11/04 06:24:43;;;;;;;;;;;;;;;17.99;41.52;95223.94;6124254;19;1555;-66
2022/11/04 06:26:47;;;;;;;;;;;;;;;18.13;41.01;95221.44;6123840;19;1025;-65
2022/11/04 06:28:50;;;;;;;;;;;;;;;18.23;41.21;95224.56;6119570;19;1863;-65
2022/11/04 06:30:54;;;;;;;;;;;;;;;18.32;40.73;95223.41;6103123;19;1715;-65
2022/11/04 06:32:59;;;;;;;;;;;;;;;18.41;40.69;95227.59;6123995;19;1013;-66
2022/11/04 06:35:03;;;;;;;;;;;;;;;18.47;40.54;95216.19;6120892;19;1483;-68
2022/11/04 06:37:06;;;;;;;;;;;;;;;18.52;40.53;95219.09;6123181;19;1066;-68
2022/11/04 06:39:11;;;;;;;;;;;;;;;18.59;40.55;95215.66;6123916;19;1002;-67
2022/11/04 06:41:15;;;;;;;;;;;;;;;18.66;40.82;95212.03;6098450;19;1310;-67
2022/11/04 06:43:18;;;;;;;;;;;;;;;18.71;40.92;95217.59;6122664;19;1045;-69
2022/11/04 06:45:22;;;;;;;;;;;;;;;18.76;40.47;95219.69;6123067;19;1066;-68
2022/11/04 06:47:25;;;;;;;;;;;;;;;18.80;40.66;95215.59;6123226;19;1506;-67
2022/11/04 06:49:31;;;;;;;;;;;;;;;18.85;40.36;95217.69;6120823;19;1846;-67
2022/11/04 06:51:35;;;;;;;;;;;;;;;18.88;40.43;95218.09;6117544;19;1547;-66
2022/11/04 06:53:38;;;;;;;;;;;;;;;18.92;40.49;95211.41;6105169;19;1038;-67
2022/11/04 06:55:42;;;;;;;;;;;;;;;18.96;40.61;95211.81;6123025;19;1525;-68
2022/11/04 06:57:45;;;;;;;;;;;;;;;18.99;40.67;95209.56;6122121;19;970;-68
2022/11/04 06:59:48;;;;;;;;;;;;;;;19.04;40.17;95210.84;6121492;19;1290;-68
2022/11/04 07:01:52;;;;;;;;;;;;;;;19.06;40.78;95214.09;6121165;19;1100;-69
2022/11/04 07:03:56;;;;;;;;;;;;;;;19.06;40.84;95214.09;6097490;19;1359;-69
2022/11/04 07:06:07;;;;;;;;;;;;;;;19.08;40.86;95212.06;6122127;19;1041;-68
2022/11/04 07:08:10;;;;;;;;;;;;;;;19.09;40.78;95219.03;6120224;19;1853;-69
2022/11/04 07:10:13;;;;;;;;;;;;;;;19.10;40.68;95210.03;6121402;19;1348;-67
2022/11/04 07:12:16;;;;;;;;;;;;;;;19.12;40.80;95216.81;6121785;19;1045;-69
2022/11/04 07:14:20;;;;;;;;;;;;;;;19.15;40.59;95208.44;6115803;19;1060;-67
2022/11/04 07:16:23;;;;;;;;;;;;;;;19.17;40.50;95208.22;6106535;19;1209;-69
2022/11/04 07:18:27;;;;;;;;;;;;;;;19.19;40.52;95208.84;6122739;19;1173;-74
2022/11/04 07:20:30;;;;;;;;;;;;;;;19.19;40.54;95209.66;6122150;19;1132;-73
2022/11/04 07:22:36;;;;;;;;;;;;;;;19.21;40.24;95209.50;6122847;19;1053;-72
2022/11/04 07:24:39;;;;;;;;;;;;;;;19.24;40.14;95206.44;6124346;19;962;-78
2022/11/04 07:26:43;;;;;;;;;;;;;;;19.24;40.29;95195.78;6097211;19;1443;-78
2022/11/04 07:28:46;;;;;;;;;;;;;;;19.25;40.25;95194.75;6122671;19;1845;-76
2022/11/04 07:30:50;;;;;;;;;;;;;;;19.28;40.43;95194.34;6122603;19;1513;-71
2022/11/04 07:32:53;;;;;;;;;;;;;;;19.27;40.26;95187.38;6122947;19;1284;-73
2022/11/04 07:34:56;;;;;;;;;;;;;;;19.27;40.40;95179.38;6121402;19;1065;-73
2022/11/04 07:37:00;;;;;;;;;;;;;;;19.31;40.43;95183.28;6117921;19;1252;-67
2022/11/04 07:39:06;;;;;;;;;;;;;;;19.33;40.44;95183.09;6103463;19;1275;-72
2022/11/04 07:41:10;;;;;;;;;;;;;;;19.36;40.31;95172.84;6120144;19;1591;-73
2022/11/04 07:43:13;;;;;;;;;;;;;;;19.38;40.08;95172.66;6122571;19;1264;-74
2022/11/04 07:45:16;;;;;;;;;;;;;;;19.38;40.47;95178.81;6121635;19;1045;-71
2022/11/04 07:47:20;;;;;;;;;;;;;;;19.41;40.33;95170.41;6121617;19;1082;-70
2022/11/04 07:49:24;;;;;;;;;;;;;;;19.43;40.05;95171.03;6095028;19;1861;-71
2022/11/04 07:51:27;;;;;;;;;;;;;;;19.44;39.97;95170.00;6121677;19;987;-71
2022/11/04 07:53:32;;;;;;;;;;;;;;;19.45;40.63;95171.66;6121885;19;1010;-67
2022/11/04 07:55:38;;;;;;;;;;;;;;;19.44;41.06;95167.34;6122261;19;1176;-74
2022/11/04 07:57:41;;;;;;;;;;;;;;;19.46;41.00;95172.47;6120732;19;1124;-74
2022/11/04 07:59:44;;;;;;;;;;;;;;;19.46;40.84;95172.47;6114886;19;1349;-73
2022/11/04 08:01:48;;;;;;;;;;;;;;;19.49;40.64;95169.41;6103347;19;1128;-71
2022/11/04 08:03:51;;;;;;;;;;;;;;;19.51;40.37;95169.19;6120842;19;993;-73
2022/11/04 08:05:58;;;;;;;;;;;;;;;19.50;40.47;95172.91;6121406;19;1291;-70
2022/11/04 08:08:02;;;;;;;;;;;;;;;19.50;40.40;95168.38;6120796;19;1057;-71
2022/11/04 08:10:05;;;;;;;;;;;;;;;19.53;40.29;95167.19;6119604;19;1861;-71
2022/11/04 08:12:11;;;;;;;;;;;;;;;19.52;40.56;95160.19;6096081;19;1145;-71
2022/11/04 08:14:15;;;;;;;;;;;;;;;19.51;40.18;95148.69;6120992;19;1057;-72
2022/11/04 08:16:19;;;;;;;;;;;;;;;19.51;40.53;95155.88;6121534;19;973;-72
2022/11/04 08:18:22;;;;;;;;;;;;;;;19.51;40.47;95146.03;6120300;19;1017;-70
2022/11/04 08:20:25;;;;;;;;;;;;;;;19.52;40.41;95150.38;6121150;19;1021;-72
2022/11/04 08:22:29;;;;;;;;;;;;;;;19.54;40.63;95152.84;6112420;19;1281;-73
2022/11/04 08:24:32;;;;;;;;;;;;;;;19.54;40.24;95143.00;6106958;19;1131;-73
2022/11/04 08:26:35;;;;;;;;;;;;;;;19.55;40.32;95143.81;6120399;19;977;-72
2022/11/04 08:28:41;;;;;;;;;;;;;;;19.58;40.31;95143.44;6120454;19;1833;-73
2022/11/04 08:30:53;;;;;;;;;;;;;;;19.59;40.60;95129.06;6119151;19;1469;-71
2022/11/04 08:32:57;;;;;;;;;;;;;;;19.58;40.58;95140.78;6120513;19;975;-72
2022/11/04 08:35:00;;;;;;;;;;;;;;;19.61;40.25;95133.19;6095918;19;1481;-72
2022/11/04 08:37:03;;;;;;;;;;;;;;;19.62;40.22;95128.66;6119982;19;1104;-73
2022/11/04 08:39:07;;;;;;;;;;;;;;;19.60;40.19;95130.69;6120046;19;1061;-74
2022/11/04 08:41:11;;;;;;;;;;;;;;;19.62;40.30;95126.00;6119578;19;1058;-70
2022/11/04 08:43:15;;;;;;;;;;;;;;;19.62;40.28;95126.00;6120279;19;966;-73
2022/11/04 08:45:21;;;;;;;;;;;;;;;19.64;40.12;95123.97;6109376;19;1121;-72
2022/11/04 08:47:24;;;;;;;;;;;;;;;19.64;40.08;95129.28;6108015;19;1208;-72
2022/11/04 08:49:28;;;;;;;;;;;;;;;19.63;40.10;95120.47;6118079;19;1849;-72
2022/11/04 08:51:32;;;;;;;;;;;;;;;19.67;40.69;95118.22;6118205;19;2040;-71
2022/11/04 08:53:35;;;;;;;;;;;;;;;19.69;40.87;95118.84;6121547;19;2117;-72
2022/11/04 08:55:38;;;;;;;;;;;;;;;19.69;39.83;95118.84;6118737;19;1144;-72
2022/11/04 08:57:42;;;;;;;;;;;;;;;19.72;39.82;95117.59;6093637;19;1109;-73
2022/11/04 08:59:45;;;;;;;;;;;;;;;19.72;40.07;95117.59;6118513;19;1256;-71
2022/11/04 09:01:51;;;;;;;;;;;;;;;19.70;40.38;95115.16;6118687;19;1124;-73
2022/11/04 09:03:54;;;;;;;;;;;;;;;19.72;40.52;95104.25;6119047;19;1069;-71
2022/11/04 09:05:59;;;;;;;;;;;;;;;19.71;39.77;95108.78;6119765;19;946;-71
2022/11/04 09:08:03;;;;;;;;;;;;;;;19.70;39.56;95115.16;6107106;19;1044;-72
2022/11/04 09:10:07;;;;;;;;;;;;;;;19.71;39.37;95105.31;6104035;19;1854;-72
2022/11/04 09:12:11;;;;;;;;;;;;;;;19.70;39.38;95099.16;6119491;19;1025;-71
2022/11/04 09:14:16;;;;;;;;;;;;;;;19.69;39.45;95094.84;6117571;19;1488;-72
2022/11/04 09:16:19;;;;;;;;;;;;;;;19.70;39.51;95101.81;6119186;19;1077;-72
2022/11/04 09:18:25;;;;;;;;;;;;;;;19.70;39.26;95079.69;6118259;19;1137;-71
2022/11/04 09:20:29;;;;;;;;;;;;;;;19.71;39.33;95081.31;6093224;19;1191;-72
2022/11/04 09:22:33;;;;;;;;;;;;;;;19.72;39.24;95073.13;6119018;19;1475;-67
2022/11/04 09:24:36;;;;;;;;;;;;;;;19.73;39.37;95072.09;6119317;19;1436;-73
2022/11/04 09:26:40;;;;;;;;;;;;;;;19.75;39.07;95063.88;6119113;19;951;-71
2022/11/04 09:28:44;;;;;;;;;;;;;;;19.76;39.36;95069.00;6119485;19;1009;-71
2022/11/04 09:30:47;;;;;;;;;;;;;;;19.77;39.22;95064.50;6105819;19;1857;-72
2022/11/04 09:32:50;;;;;;;;;;;;;;;19.79;39.25;95065.13;6104789;19;1200;-72
2022/11/04 09:34:56;;;;;;;;;;;;;;;19.77;39.44;95067.97;6118849;19;1120;-72
2022/11/04 09:37:00;;;;;;;;;;;;;;;19.78;39.13;95053.63;6119996;19;955;-73
2022/11/04 09:39:03;;;;;;;;;;;;;;;19.79;39.12;95063.25;6118807;19;1424;-72
2022/11/04 09:41:11;;;;;;;;;;;;;;;19.80;39.55;95048.91;6117962;19;1140;-71
2022/11/04 09:43:21;;;;;;;;;;;;;;;19.81;39.58;95047.88;6094366;19;1232;-71
2022/11/04 09:45:28;;;;;;;;;;;;;;;19.82;39.28;95041.53;6119365;19;1123;-73
2022/11/04 09:47:33;;;;;;;;;;;;;;;19.82;39.54;95040.69;6117244;19;1384;-72
2022/11/04 09:49:38;;;;;;;;;;;;;;;19.83;39.28;95042.34;6119329;19;1834;-73
2022/11/04 09:51:46;;;;;;;;;;;;;;;19.83;39.60;95037.84;6118633;19;1073;-72
2022/11/04 09:53:51;;;;;;;;;;;;;;;19.82;39.76;95028.19;6105600;19;1070;-70
2022/11/04 09:55:56;;;;;;;;;;;;;;;19.82;39.91;95022.84;6105968;19;1631;-70
2022/11/04 09:58:00;;;;;;;;;;;;;;;19.83;39.98;95016.50;6118211;19;974;-70
2022/11/04 10:00:04;;;;;;;;;;;;;;;19.82;39.70;95014.84;6116605;19;1246;-71
2022/11/04 10:02:21;;;;;;;;;;;;;;;19.85;39.96;95010.97;6116144;19;1045;-71
2022/11/04 10:04:29;;;;;;;;;;;;;;;19.85;39.89;94995.78;6118471;19;1540;-71
2022/11/04 10:06:37;;;;;;;;;;;;;;;19.85;39.78;95001.09;6093898;19;1077;-71
2022/11/04 10:08:57;;;;;;;;;;;;;;;19.87;39.84;94988.41;6118800;19;1010;-70
2022/11/04 10:11:05;;;;;;;;;;;;;;;19.88;39.72;94992.69;6115876;19;1843;-70
2022/11/04 10:13:15;;;;;;;;;;;;;;;19.90;39.54;94984.50;6118263;19;963;-70
2022/11/04 10:15:30;;;;;;;;;;;;;;;19.88;39.77;94987.34;6117863;19;1057;-71
2022/11/04 10:17:43;;;;;;;;;;;;;;;19.91;39.49;94987.97;6092073;19;1144;-70
2022/11/04 10:19:51;;;;;;;;;;;;;;;19.91;40.08;94977.31;6118106;19;1029;-71
2022/11/04 10:22:02;;;;;;;;;;;;;;;19.92;39.96;94976.28;6118095;19;1017;-71
2022/11/04 10:24:17;;;;;;;;;;;;;;;19.90;40.28;94971.16;6117259;19;1057;-72
2022/11/04 10:26:26;;;;;;;;;;;;;;;19.61;38.85;94962.59;6118161;19;1026;-74
2022/11/04 10:28:34;;;;;;;;;;;;;;;19.49;40.24;94963.38;6090392;19;1525;-74
2022/11/04 10:30:38;;;;;;;;;;;;;;;19.38;40.21;94957.66;6115988;19;1846;-71
2022/11/04 10:32:46;;;;;;;;;;;;;;;19.33;39.99;94949.47;6116691;19;1062;-74
2022/11/04 10:34:51;;;;;;;;;;;;;;;19.35;39.79;94957.22;6117600;19;1018;-73
2022/11/04 10:36:56;;;;;;;;;;;;;;;19.34;40.11;94943.09;6117920;19;1021;-73
2022/11/04 10:39:00;;;;;;;;;;;;;;;19.29;40.03;94934.94;6103845;19;1153;-73
2022/11/04 10:41:14;;;;;;;;;;;;;;;19.26;39.88;94935.31;6104391;19;1165;-71
2022/11/04 10:43:19;;;;;;;;;;;;;;;19.44;39.90;94927.53;6116975;19;1046;-74
2022/11/04 10:45:24;;;;;;;;;;;;;;;19.53;39.50;94922.81;6120716;19;1017;-74
2022/11/04 10:47:34;;;;;;;;;;;;;;;19.57;39.61;94917.91;6122842;19;1021;-73
2022/11/04 10:49:46;;;;;;;;;;;;;;;19.60;39.59;94914.81;6123288;19;1860;-74
2022/11/04 10:51:50;;;;;;;;;;;;;;;19.20;39.63;94917.47;6098489;19;1219;-71
2022/11/04 10:53:56;;;;;;;;;;;;;;;19.15;39.63;94904.81;6122540;19;963;-69
2022/11/04 10:56:03;;;;;;;;;;;;;;;19.42;39.48;94902.09;6124049;19;959;-73
2022/11/04 10:58:12;;;;;;;;;;;;;;;19.57;39.89;94904.56;6122935;19;1069;-73
2022/11/04 11:00:30;;;;;;;;;;;;;;;19.63;39.58;94895.75;6121174;19;1338;-72
2022/11/04 11:02:48;;;;;;;;;;;;;;;19.67;39.61;94894.31;6097374;19;1342;-73
2022/11/04 11:04:53;;;;;;;;;;;;;;;19.71;39.56;94889.38;6123498;19;955;-72
2022/11/04 11:06:57;;;;;;;;;;;;;;;19.72;39.87;94885.66;6123209;19;1085;-73
2022/11/04 11:09:03;;;;;;;;;;;;;;;19.73;39.99;94882.81;6122470;19;1088;-74
2022/11/04 11:11:08;;;;;;;;;;;;;;;19.75;39.79;94871.91;6121309;19;1843;-73
2022/11/04 11:13:25;;;;;;;;;;;;;;;19.76;40.22;94863.72;6110110;19;1098;-72
2022/11/04 11:15:31;;;;;;;;;;;;;;;19.77;40.26;94860.03;6122462;19;1058;-73
2022/11/04 11:17:37;;;;;;;;;;;;;;;19.77;39.99;94853.88;6122153;19;1034;-73
2022/11/04 11:19:46;;;;;;;;;;;;;;;19.77;40.04;94854.69;6122813;19;1061;-72
2022/11/04 11:21:51;;;;;;;;;;;;;;;19.79;40.08;94852.63;6122435;19;1697;-73
2022/11/04 11:23:56;;;;;;;;;;;;;;;19.79;40.53;94844.66;6120621;19;1139;-72
2022/11/04 11:25:59;;;;;;;;;;;;;;;19.80;40.16;94843.59;6104209;19;1301;-72
2022/11/04 11:28:04;;;;;;;;;;;;;;;19.82;40.21;94851.41;6122695;19;1223;-70